createdAt,value
2022-08-22T00:00:03.357Z,26.81
2022-08-22T00:02:36.426Z,26.80
2022-08-22T00:02:56.463Z,27.50
2022-08-22T00:02:56.463Z,27.30
2022-08-22T00:03:07.585Z,27.02
2022-08-22T00:05:09.330Z,26.79
2022-08-22T00:07:42.376Z,26.78
2022-08-22T00:10:23.595Z,26.77
2022-08-22T00:12:48.373Z,26.77
2022-08-22T00:15:31.490Z,26.76
2022-08-22T00:17:54.398Z,26.75
2022-08-22T00:20:28.296Z,26.75
2022-08-22T00:23:00.356Z,26.74
2022-08-22T00:25:33.452Z,26.73
2022-08-22T00:28:06.381Z,26.73
2022-08-22T00:30:39.246Z,26.72
2022-08-22T00:33:12.431Z,26.72
2022-08-22T00:35:45.505Z,26.71
2022-08-22T00:38:18.356Z,26.71
2022-08-22T00:40:51.433Z,26.70
2022-08-22T00:43:24.477Z,26.70
2022-08-22T00:45:57.370Z,26.70
2022-08-22T00:48:30.438Z,26.69
2022-08-22T00:51:03.379Z,26.69
2022-08-22T00:53:50.455Z,26.68
2022-08-22T00:56:23.477Z,26.67
2022-08-22T00:58:56.474Z,26.67
2022-08-22T01:01:29.617Z,26.66
2022-08-22T01:04:02.466Z,26.66
2022-08-22T01:06:35.485Z,26.65
2022-08-22T01:09:08.428Z,26.65
2022-08-22T01:11:41.513Z,26.64
2022-08-22T01:14:14.416Z,26.64
2022-08-22T01:16:47.503Z,26.63
2022-08-22T01:19:20.441Z,26.62
2022-08-22T01:21:53.496Z,26.62
2022-08-22T01:24:26.538Z,26.61
2022-08-22T01:26:59.466Z,26.61
2022-08-22T01:29:32.504Z,26.60
2022-08-22T01:32:06.437Z,26.60
2022-08-22T01:34:39.545Z,26.59
2022-08-22T01:37:13.480Z,26.59
2022-08-22T01:40:00.579Z,26.58
2022-08-22T01:42:33.457Z,26.58
2022-08-22T01:45:06.525Z,26.57
2022-08-22T01:47:39.535Z,26.56
2022-08-22T01:50:12.505Z,26.55
2022-08-22T01:52:45.549Z,26.54
2022-08-22T01:55:18.508Z,26.54
2022-08-22T01:57:51.525Z,26.53
2022-08-22T02:00:34.810Z,26.52
2022-08-22T02:02:57.603Z,26.52
2022-08-22T02:05:30.533Z,26.51
2022-08-22T02:08:03.585Z,26.51
2022-08-22T02:10:36.341Z,26.50
2022-08-22T02:13:09.490Z,26.49
2022-08-22T02:15:44.003Z,26.49
2022-08-22T02:18:15.495Z,26.48
2022-08-22T02:20:48.579Z,26.48
2022-08-22T02:23:21.535Z,26.47
2022-08-22T02:25:54.625Z,26.47
2022-08-22T02:28:27.607Z,26.46
2022-08-22T02:31:00.573Z,26.45
2022-08-22T02:33:34.439Z,26.45
2022-08-22T02:36:06.544Z,26.44
2022-08-22T02:38:39.578Z,26.44
2022-08-22T02:41:12.545Z,26.43
2022-08-22T02:43:45.522Z,26.42
2022-08-22T02:46:18.551Z,26.42
2022-08-22T02:48:51.594Z,26.41
2022-08-22T02:51:24.689Z,26.41
2022-08-22T02:53:58.432Z,26.40
2022-08-22T02:56:31.633Z,26.40
2022-08-22T02:59:04.571Z,26.39
2022-08-22T03:01:37.673Z,26.39
2022-08-22T03:04:10.559Z,26.38
2022-08-22T03:06:43.657Z,26.37
2022-08-22T03:09:16.588Z,26.37
2022-08-22T03:11:49.655Z,26.36
2022-08-22T03:14:22.636Z,26.36
2022-08-22T03:16:55.433Z,26.35
2022-08-22T03:19:28.671Z,26.34
2022-08-22T03:22:01.598Z,26.34
2022-08-22T03:24:34.673Z,26.33
2022-08-22T03:27:07.649Z,26.33
2022-08-22T03:29:40.655Z,26.32
2022-08-22T03:32:13.611Z,26.31
2022-08-22T03:34:46.644Z,26.31
2022-08-22T03:37:19.593Z,26.30
2022-08-22T03:39:58.578Z,26.29
2022-08-22T03:42:31.614Z,26.29
2022-08-22T03:45:07.020Z,26.28
2022-08-22T03:47:37.659Z,26.27
2022-08-22T03:50:10.716Z,26.27
2022-08-22T03:52:43.660Z,26.26
2022-08-22T03:55:16.678Z,26.25
2022-08-22T03:57:49.707Z,26.25
2022-08-22T04:00:22.696Z,26.24
2022-08-22T04:02:55.697Z,26.23
2022-08-22T04:05:28.669Z,26.23
2022-08-22T04:08:01.638Z,26.22
2022-08-22T04:10:34.407Z,26.22
2022-08-22T04:13:07.701Z,26.22
2022-08-22T04:15:40.383Z,26.22
2022-08-22T04:18:13.654Z,26.21
2022-08-22T04:20:46.445Z,26.20
2022-08-22T04:23:19.525Z,26.18
2022-08-22T04:25:52.492Z,26.17
2022-08-22T04:28:25.780Z,26.15
2022-08-22T04:30:58.482Z,26.12
2022-08-22T04:33:31.549Z,26.09
2022-08-22T04:36:04.405Z,26.05
2022-08-22T04:38:37.823Z,26.00
2022-08-22T04:41:10.738Z,25.95
2022-08-22T04:43:43.758Z,25.90
2022-08-22T04:46:16.615Z,25.85
2022-08-22T04:48:49.771Z,25.80
2022-08-22T04:51:22.752Z,25.75
2022-08-22T04:53:55.685Z,25.71
2022-08-22T04:56:28.848Z,25.66
2022-08-22T04:59:02.970Z,25.61
2022-08-22T05:01:34.803Z,25.56
2022-08-22T05:04:07.705Z,25.52
2022-08-22T05:06:40.749Z,25.48
2022-08-22T05:09:16.200Z,25.44
2022-08-22T05:11:49.764Z,25.41
2022-08-22T05:14:22.809Z,25.37
2022-08-22T05:16:55.757Z,25.33
2022-08-22T05:19:32.073Z,25.28
2022-08-22T05:22:01.605Z,25.25
2022-08-22T05:24:38.594Z,25.21
2022-08-22T05:27:11.847Z,25.18
2022-08-22T05:29:46.007Z,25.15
2022-08-22T05:32:19.817Z,25.12
2022-08-22T05:34:52.620Z,25.10
2022-08-22T05:37:25.861Z,25.08
2022-08-22T05:39:59.017Z,25.06
2022-08-22T05:42:32.904Z,25.03
2022-08-22T05:45:05.860Z,25.01
2022-08-22T05:47:38.771Z,24.99
2022-08-22T05:50:11.850Z,24.97
2022-08-22T05:52:44.872Z,24.96
2022-08-22T05:55:17.824Z,24.95
2022-08-22T05:57:50.889Z,24.93
2022-08-22T06:00:23.797Z,24.92
2022-08-22T06:02:56.764Z,24.90
2022-08-22T06:05:29.630Z,24.89
2022-08-22T06:08:02.936Z,24.88
2022-08-22T06:10:35.798Z,24.87
2022-08-22T06:13:11.538Z,24.86
2022-08-22T06:15:41.905Z,24.85
2022-08-22T06:18:14.552Z,24.84
2022-08-22T06:20:47.847Z,24.82
2022-08-22T06:23:20.927Z,24.79
2022-08-22T06:25:53.741Z,24.78
2022-08-22T06:28:26.626Z,24.76
2022-08-22T06:30:59.698Z,24.74
2022-08-22T06:33:32.655Z,24.71
2022-08-22T06:36:05.881Z,24.66
2022-08-22T06:38:38.883Z,24.59
2022-08-22T06:41:11.667Z,24.55
2022-08-22T06:43:44.778Z,24.54
2022-08-22T06:46:17.921Z,24.55
2022-08-22T06:48:51.970Z,24.56
2022-08-22T06:51:24.728Z,24.56
2022-08-22T06:56:37.803Z,24.57
2022-08-22T06:59:10.967Z,24.58
2022-08-22T07:01:47.176Z,24.59
2022-08-22T07:04:21.546Z,24.56
2022-08-22T07:06:55.797Z,24.52
2022-08-22T07:09:30.968Z,24.48
2022-08-22T07:12:04.004Z,24.45
2022-08-22T07:14:36.929Z,24.44
2022-08-22T07:17:10.016Z,24.46
2022-08-22T07:19:42.907Z,24.50
2022-08-22T07:22:15.909Z,24.53
2022-08-22T07:24:48.900Z,24.56
2022-08-22T07:27:21.924Z,24.60
2022-08-22T07:29:55.014Z,24.63
2022-08-22T07:32:28.050Z,24.66
2022-08-22T07:35:01.040Z,24.69
2022-08-22T07:37:34.001Z,24.72
2022-08-22T07:40:07.064Z,24.75
2022-08-22T07:42:40.013Z,24.77
2022-08-22T07:45:12.914Z,24.80
2022-08-22T07:47:49.533Z,24.82
2022-08-22T07:50:18.957Z,24.85
2022-08-22T07:52:52.014Z,24.87
2022-08-22T07:55:25.115Z,24.89
2022-08-22T07:57:58.145Z,24.91
2022-08-22T08:00:31.073Z,24.93
2022-08-22T08:03:04.043Z,24.95
2022-08-22T08:05:36.975Z,24.97
2022-08-22T08:08:10.092Z,24.99
2022-08-22T08:10:42.701Z,25.00
2022-08-22T08:13:16.002Z,25.01
2022-08-22T08:15:48.985Z,25.03
2022-08-22T08:18:22.094Z,25.04
2022-08-22T08:20:57.047Z,25.06
2022-08-22T08:23:30.071Z,25.07
2022-08-22T08:26:04.117Z,25.09
2022-08-22T08:28:37.099Z,25.10
2022-08-22T08:31:10.103Z,25.11
2022-08-22T08:33:43.040Z,25.12
2022-08-22T08:36:16.056Z,25.13
2022-08-22T08:38:49.052Z,25.15
2022-08-22T08:41:22.729Z,25.16
2022-08-22T08:43:55.067Z,25.17
2022-08-22T08:46:28.127Z,25.18
2022-08-22T08:49:01.060Z,25.19
2022-08-22T08:51:33.920Z,25.20
2022-08-22T08:54:07.097Z,25.21
2022-08-22T08:56:40.063Z,25.22
2022-08-22T08:59:12.983Z,25.23
2022-08-22T09:01:46.178Z,25.24
2022-08-22T09:04:19.044Z,25.25
2022-08-22T09:06:54.795Z,25.26
2022-08-22T09:09:25.102Z,25.26
2022-08-22T09:11:58.156Z,25.27
2022-08-22T09:14:31.098Z,25.28
2022-08-22T09:17:04.060Z,25.29
2022-08-22T09:19:37.127Z,25.30
2022-08-22T09:22:14.339Z,25.31
2022-08-22T09:24:43.114Z,25.31
2022-08-22T09:27:15.844Z,25.32
2022-08-22T09:29:54.456Z,25.33
2022-08-22T09:32:22.311Z,25.34
2022-08-22T09:34:56.013Z,25.34
2022-08-22T09:37:28.930Z,25.35
2022-08-22T09:40:02.287Z,25.36
2022-08-22T09:42:35.162Z,25.37
2022-08-22T09:45:08.187Z,25.38
2022-08-22T09:47:41.130Z,25.39
2022-08-22T09:50:14.153Z,25.39
2022-08-22T09:52:47.277Z,25.40
2022-08-22T09:55:22.703Z,25.41
2022-08-22T09:57:53.040Z,25.41
2022-08-22T10:00:26.187Z,25.42
2022-08-22T10:02:59.362Z,25.43
2022-08-22T10:05:41.339Z,25.43
2022-08-22T10:08:05.334Z,25.44
2022-08-22T10:10:37.996Z,25.45
2022-08-22T10:13:10.936Z,25.45
2022-08-22T10:15:44.180Z,25.46
2022-08-22T10:18:16.893Z,25.47
2022-08-22T10:20:50.172Z,25.47
2022-08-22T10:23:23.216Z,25.48
2022-08-22T10:25:56.253Z,25.49
2022-08-22T10:28:29.212Z,25.49
2022-08-22T10:31:02.281Z,25.50
2022-08-22T10:33:35.430Z,25.50
2022-08-22T10:36:12.099Z,25.51
2022-08-22T10:38:46.798Z,25.51
2022-08-22T10:41:16.927Z,25.52
2022-08-22T10:43:56.563Z,25.53
2022-08-22T10:46:23.103Z,25.54
2022-08-22T10:48:56.019Z,25.54
2022-08-22T10:51:29.285Z,25.55
2022-08-22T10:54:02.294Z,25.56
2022-08-22T10:56:35.229Z,25.56
2022-08-22T10:59:08.347Z,25.57
2022-08-22T11:01:42.175Z,25.57
2022-08-22T11:04:14.320Z,25.58
2022-08-22T11:06:47.354Z,25.58
2022-08-22T11:09:20.271Z,25.59
2022-08-22T11:11:53.354Z,25.59
2022-08-22T11:14:26.339Z,25.60
2022-08-22T11:16:59.317Z,25.60
2022-08-22T11:19:32.356Z,25.61
2022-08-22T11:22:05.239Z,25.61
2022-08-22T11:24:54.014Z,25.62
2022-08-22T11:27:13.121Z,25.62
2022-08-22T11:29:44.365Z,25.63
2022-08-22T11:32:16.985Z,25.64
2022-08-22T11:34:50.274Z,25.64
2022-08-22T11:37:23.992Z,25.65
2022-08-22T11:39:56.455Z,25.65
2022-08-22T11:42:29.617Z,25.66
2022-08-22T11:45:02.308Z,25.66
2022-08-22T11:47:35.283Z,25.67
2022-08-22T11:50:13.459Z,25.67
2022-08-22T11:52:41.322Z,25.68
2022-08-22T11:55:14.339Z,25.68
2022-08-22T11:57:47.324Z,25.69
2022-08-22T12:00:20.615Z,25.69
2022-08-22T12:02:53.043Z,25.70
2022-08-22T12:05:26.658Z,25.70
2022-08-22T12:07:59.153Z,25.70
2022-08-22T12:10:32.208Z,25.71
2022-08-22T12:13:05.182Z,25.72
2022-08-22T12:15:38.254Z,25.72
2022-08-22T12:18:12.739Z,25.73
2022-08-22T12:20:45.504Z,25.73
2022-08-22T12:23:17.114Z,25.73
2022-08-22T12:25:50.351Z,25.74
2022-08-22T12:28:23.188Z,25.74
2022-08-22T12:30:56.207Z,25.75
2022-08-22T12:33:29.594Z,25.76
2022-08-22T12:36:02.278Z,25.76
2022-08-22T12:38:37.951Z,25.77
2022-08-22T12:41:08.420Z,25.77
2022-08-22T12:43:42.357Z,25.78
2022-08-22T12:46:14.091Z,25.78
2022-08-22T12:48:47.714Z,25.78
2022-08-22T12:51:20.096Z,25.79
2022-08-22T12:53:53.108Z,25.79
2022-08-22T12:56:26.139Z,25.80
2022-08-22T12:58:59.267Z,25.81
2022-08-22T13:01:34.120Z,25.81
2022-08-22T13:04:05.521Z,25.81
2022-08-22T13:06:38.423Z,25.82
2022-08-22T13:09:11.217Z,25.83
2022-08-22T13:11:44.142Z,25.83
2022-08-22T13:14:19.571Z,25.84
2022-08-22T13:17:10.045Z,25.84
2022-08-22T13:19:37.210Z,25.85
2022-08-22T13:22:10.221Z,25.85
2022-08-22T13:24:52.287Z,25.86
2022-08-22T13:27:16.426Z,25.87
2022-08-22T13:29:49.162Z,25.87
2022-08-22T13:32:23.504Z,25.88
2022-08-22T13:34:55.164Z,25.89
2022-08-22T13:37:28.276Z,25.89
2022-08-22T13:40:01.399Z,25.90
2022-08-22T13:42:34.298Z,25.91
2022-08-22T13:45:07.573Z,25.91
2022-08-22T13:47:40.451Z,25.92
2022-08-22T13:50:13.854Z,25.93
2022-08-22T13:52:52.573Z,25.93
2022-08-22T13:55:19.257Z,25.94
2022-08-22T13:57:52.508Z,25.95
2022-08-22T14:00:29.206Z,25.95
2022-08-22T14:02:58.368Z,25.96
2022-08-22T14:05:31.331Z,25.97
2022-08-22T14:08:04.792Z,25.98
2022-08-22T14:10:37.400Z,25.98
2022-08-22T14:13:10.338Z,25.99
2022-08-22T14:15:45.689Z,26.00
2022-08-22T14:18:16.862Z,26.00
2022-08-22T14:20:49.548Z,26.01
2022-08-22T14:23:22.287Z,26.02
2022-08-22T14:25:55.447Z,26.02
2022-08-22T14:28:28.406Z,26.03
2022-08-22T14:31:01.974Z,26.04
2022-08-22T14:33:34.594Z,26.05
2022-08-22T14:36:07.622Z,26.06
2022-08-22T14:38:40.407Z,26.06
2022-08-22T14:41:13.280Z,26.07
2022-08-22T14:43:46.418Z,26.08
2022-08-22T14:46:21.193Z,26.09
2022-08-22T14:48:54.533Z,26.10
2022-08-22T14:51:27.308Z,26.11
2022-08-22T14:54:00.276Z,26.12
2022-08-22T14:56:33.427Z,26.13
2022-08-22T14:59:06.636Z,26.14
2022-08-22T15:01:39.431Z,26.15
2022-08-22T15:04:14.647Z,26.16
2022-08-22T15:06:48.146Z,26.17
2022-08-22T15:09:18.600Z,26.17
2022-08-22T15:11:51.370Z,26.18
2022-08-22T15:14:24.491Z,26.19
2022-08-22T15:16:57.317Z,26.20
2022-08-22T15:19:30.499Z,26.21
2022-08-22T15:22:03.466Z,26.22
2022-08-22T15:24:36.410Z,26.23
2022-08-22T15:27:09.505Z,26.24
2022-08-22T15:29:42.501Z,26.25
2022-08-22T15:32:15.633Z,26.26
2022-08-22T15:34:54.613Z,26.27
2022-08-22T15:37:27.497Z,26.28
2022-08-22T15:40:02.899Z,26.28
2022-08-22T15:42:33.512Z,26.29
2022-08-22T15:45:06.689Z,26.30
2022-08-22T15:47:39.359Z,26.31
2022-08-22T15:50:15.255Z,26.32
2022-08-22T15:52:45.372Z,26.33
2022-08-22T15:55:18.378Z,26.34
2022-08-22T15:57:51.537Z,26.35
2022-08-22T16:00:24.457Z,26.36
2022-08-22T16:02:57.605Z,26.37
2022-08-22T16:05:30.709Z,26.39
2022-08-22T16:08:03.549Z,26.40
2022-08-22T16:10:36.544Z,26.42
2022-08-22T16:13:09.532Z,26.44
2022-08-22T16:15:42.751Z,26.46
2022-08-22T16:18:15.428Z,26.48
2022-08-22T16:20:48.398Z,26.50
2022-08-22T16:23:21.424Z,26.52
2022-08-22T16:25:54.600Z,26.54
2022-08-22T16:28:54.417Z,26.57
2022-08-22T16:31:00.576Z,26.58
2022-08-22T16:33:33.485Z,26.60
2022-08-22T16:36:06.440Z,26.62
2022-08-22T16:38:39.570Z,26.64
2022-08-22T16:41:12.428Z,26.65
2022-08-22T16:43:52.687Z,26.67
2022-08-22T16:46:18.639Z,26.69
2022-08-22T16:48:51.619Z,26.70
2022-08-22T16:51:24.447Z,26.72
2022-08-22T16:53:57.632Z,26.73
2022-08-22T16:56:30.467Z,26.75
2022-08-22T16:59:19.639Z,26.77
2022-08-22T17:01:36.543Z,26.78
2022-08-22T17:04:09.462Z,26.80
2022-08-22T17:06:42.466Z,26.82
2022-08-22T17:09:15.504Z,26.84
2022-08-22T17:11:48.641Z,26.86
2022-08-22T17:14:21.541Z,26.89
2022-08-22T17:16:58.581Z,26.91
2022-08-22T17:19:31.629Z,26.93
2022-08-22T17:22:04.675Z,26.95
2022-08-22T17:24:37.515Z,26.97
2022-08-22T17:27:10.532Z,26.99
2022-08-22T17:29:43.521Z,27.01
2022-08-22T17:32:16.525Z,27.03
2022-08-22T17:34:49.579Z,27.05
2022-08-22T17:37:22.695Z,27.07
2022-08-22T17:39:56.110Z,27.08
2022-08-22T17:42:28.540Z,27.10
2022-08-22T17:45:01.639Z,27.11
2022-08-22T17:47:37.750Z,27.12
2022-08-22T17:50:10.602Z,27.13
2022-08-22T17:52:43.871Z,27.15
2022-08-22T17:55:16.551Z,27.16
2022-08-22T17:57:49.789Z,27.17
2022-08-22T18:00:23.195Z,27.19
2022-08-22T18:02:56.612Z,27.20
2022-08-22T18:05:29.821Z,27.22
2022-08-22T18:10:49.546Z,27.24
2022-08-22T18:13:22.820Z,27.26
2022-08-22T18:15:55.959Z,27.27
2022-08-22T18:18:31.252Z,27.28
2022-08-22T18:21:01.721Z,27.29
2022-08-22T18:23:40.003Z,27.31
2022-08-22T18:26:21.867Z,27.31
2022-08-22T18:28:54.566Z,27.32
2022-08-22T18:31:27.675Z,27.33
2022-08-22T18:34:00.635Z,27.34
2022-08-22T18:36:33.624Z,27.34
2022-08-22T18:39:06.607Z,27.35
2022-08-22T18:41:39.917Z,27.36
2022-08-22T18:44:12.989Z,27.36
2022-08-22T18:46:47.030Z,27.36
2022-08-22T18:49:21.103Z,27.36
2022-08-22T18:51:55.066Z,27.37
2022-08-22T18:54:28.957Z,27.37
2022-08-22T18:57:01.703Z,27.37
2022-08-22T18:59:34.767Z,27.36
2022-08-22T19:02:07.946Z,27.37
2022-08-22T19:04:43.743Z,27.37
2022-08-22T19:07:16.677Z,27.37
2022-08-22T19:09:49.768Z,27.37
2022-08-22T19:12:22.642Z,27.36
2022-08-22T19:14:55.637Z,27.36
2022-08-22T19:17:28.813Z,27.35
2022-08-22T19:20:02.000Z,27.35
2022-08-22T19:22:34.668Z,27.35
2022-08-22T19:25:08.909Z,27.35
2022-08-22T19:27:40.801Z,27.35
2022-08-22T19:30:13.852Z,27.35
2022-08-22T19:32:47.030Z,27.35
2022-08-22T19:35:20.685Z,27.34
2022-08-22T19:37:53.808Z,27.34
2022-08-22T19:40:26.949Z,27.34
2022-08-22T19:42:59.973Z,27.34
2022-08-22T19:45:32.711Z,27.33
2022-08-22T19:48:08.507Z,27.33
2022-08-22T19:50:38.696Z,27.33
2022-08-22T19:53:11.696Z,27.32
2022-08-22T19:55:44.823Z,27.32
2022-08-22T19:58:17.707Z,27.31
2022-08-22T20:00:53.466Z,27.31
2022-08-22T20:03:23.939Z,27.31
2022-08-22T20:06:03.409Z,27.31
2022-08-22T20:08:33.037Z,27.30
2022-08-22T20:11:05.767Z,27.30
2022-08-22T20:13:39.066Z,27.29
2022-08-22T20:16:12.033Z,27.29
2022-08-22T20:18:51.829Z,27.29
2022-08-22T20:21:17.848Z,27.28
2022-08-22T20:23:51.497Z,27.28
2022-08-22T20:26:23.913Z,27.27
2022-08-22T20:28:56.938Z,27.27
2022-08-22T20:31:30.107Z,27.27
2022-08-22T20:34:03.102Z,27.26
2022-08-22T20:36:35.778Z,27.26
2022-08-22T20:39:08.860Z,27.25
2022-08-22T20:41:41.832Z,27.25
2022-08-22T20:44:15.246Z,27.25
2022-08-22T20:46:53.202Z,27.24
2022-08-22T20:49:21.787Z,27.24
2022-08-22T20:51:58.816Z,27.24
2022-08-22T20:54:32.065Z,27.23
2022-08-22T20:57:04.892Z,27.22
2022-08-22T20:59:37.959Z,27.21
2022-08-22T21:02:10.796Z,27.20
2022-08-22T21:04:43.808Z,27.20
2022-08-22T21:07:17.119Z,27.19
2022-08-22T21:09:49.803Z,27.18
2022-08-22T21:12:22.819Z,27.16
2022-08-22T21:14:55.838Z,27.15
2022-08-22T21:17:34.523Z,27.14
2022-08-22T21:20:02.894Z,27.13
2022-08-22T21:22:35.973Z,27.11
2022-08-22T21:25:09.121Z,27.10
2022-08-22T21:27:42.017Z,27.09
2022-08-22T21:30:14.825Z,27.08
2022-08-22T21:32:51.178Z,27.07
2022-08-22T21:35:20.857Z,27.06
2022-08-22T21:37:53.973Z,27.04
2022-08-22T21:40:27.035Z,27.03
2022-08-22T21:42:59.977Z,27.02
2022-08-22T21:45:32.961Z,27.00
2022-08-22T21:48:05.859Z,26.99
2022-08-22T21:50:38.985Z,26.98
2022-08-22T21:53:13.951Z,26.97
2022-08-22T21:55:45.221Z,26.95
2022-08-22T21:58:18.437Z,26.94
2022-08-22T22:00:51.194Z,26.93
2022-08-22T22:03:23.878Z,26.92
2022-08-22T22:05:57.211Z,26.91
2022-08-22T22:08:31.453Z,26.90
2022-08-22T22:11:03.268Z,26.89
2022-08-22T22:13:36.042Z,26.88
2022-08-22T22:16:09.117Z,26.88
2022-08-22T22:18:42.275Z,26.86
2022-08-22T22:21:15.203Z,26.85
2022-08-22T22:23:49.292Z,26.85
2022-08-22T22:26:21.185Z,26.84
2022-08-22T22:28:54.268Z,26.83
2022-08-22T22:31:27.325Z,26.82
2022-08-22T22:34:00.240Z,26.81
2022-08-22T22:36:33.308Z,26.80
2022-08-22T22:39:06.290Z,26.78
2022-08-22T22:41:40.322Z,26.78
2022-08-22T22:44:14.229Z,26.77
2022-08-22T22:46:47.300Z,26.76
2022-08-22T22:49:20.239Z,26.75
2022-08-22T22:51:53.278Z,26.74
2022-08-22T22:54:27.339Z,26.73
2022-08-22T22:56:59.352Z,26.72
2022-08-22T22:59:33.588Z,26.71
2022-08-22T23:02:05.282Z,26.70
2022-08-22T23:04:38.325Z,26.69
2022-08-22T23:07:11.273Z,26.68
2022-08-22T23:09:50.268Z,26.67
2022-08-22T23:12:23.304Z,26.67
2022-08-22T23:14:56.314Z,26.66
2022-08-22T23:17:29.250Z,26.65
2022-08-22T23:20:02.325Z,26.65
2022-08-22T23:22:35.336Z,26.64
2022-08-22T23:25:08.339Z,26.63
2022-08-22T23:27:41.382Z,26.62
2022-08-22T23:30:14.300Z,26.62
2022-08-22T23:32:47.401Z,26.61
2022-08-22T23:35:24.240Z,26.61
2022-08-22T23:37:57.422Z,26.60
2022-08-22T23:40:30.353Z,26.59
2022-08-22T23:43:03.323Z,26.59
2022-08-22T23:45:36.374Z,26.58
2022-08-22T23:48:09.430Z,26.57
2022-08-22T23:50:42.355Z,26.57
2022-08-22T23:53:15.296Z,26.56
2022-08-22T23:55:48.314Z,26.55
2022-08-22T23:58:21.304Z,26.55
